sensor_id;sensor_type;location;lat;lon;timestamp;P1;durP1;ratioP1;P2;durP2;ratioP2
63342;SDS011;49465;57.664;39.686;2022-12-28T00:01:32;7.15;;;6.30;;
63342;SDS011;49465;57.664;39.686;2022-12-28T00:04:03;8.00;;;5.88;;
63342;SDS011;49465;57.664;39.686;2022-12-28T00:06:31;8.25;;;6.28;;
63342;SDS011;49465;57.664;39.686;2022-12-28T00:08:58;5.00;;;1.98;;
63342;SDS011;49465;57.664;39.686;2022-12-28T00:11:28;8.63;;;6.43;;
63342;SDS011;49465;57.664;39.686;2022-12-28T00:14:07;8.93;;;5.90;;
63342;SDS011;49465;57.664;39.686;2022-12-28T00:16:37;8.35;;;6.47;;
63342;SDS011;49465;57.664;39.686;2022-12-28T00:19:05;1.67;;;1.02;;
63342;SDS011;49465;57.664;39.686;2022-12-28T00:21:37;7.53;;;6.13;;
63342;SDS011;49465;57.664;39.686;2022-12-28T00:24:10;9.13;;;6.60;;
63342;SDS011;49465;57.664;39.686;2022-12-28T00:26:48;2.92;;;1.55;;
63342;SDS011;49465;57.664;39.686;2022-12-28T00:29:15;8.38;;;6.38;;
63342;SDS011;49465;57.664;39.686;2022-12-28T00:31:44;7.20;;;2.80;;
63342;SDS011;49465;57.664;39.686;2022-12-28T00:34:10;4.20;;;2.17;;
63342;SDS011;49465;57.664;39.686;2022-12-28T00:36:40;4.13;;;1.35;;
63342;SDS011;49465;57.664;39.686;2022-12-28T00:39:07;9.00;;;6.38;;
63342;SDS011;49465;57.664;39.686;2022-12-28T00:41:35;4.22;;;1.85;;
63342;SDS011;49465;57.664;39.686;2022-12-28T00:44:02;7.95;;;5.97;;
63342;SDS011;49465;57.664;39.686;2022-12-28T00:46:28;3.42;;;1.88;;
63342;SDS011;49465;57.664;39.686;2022-12-28T00:49:01;8.63;;;6.10;;
63342;SDS011;49465;57.664;39.686;2022-12-28T00:51:27;3.58;;;1.98;;
63342;SDS011;49465;57.664;39.686;2022-12-28T00:53:59;7.93;;;6.22;;
63342;SDS011;49465;57.664;39.686;2022-12-28T00:56:25;9.13;;;6.43;;
63342;SDS011;49465;57.664;39.686;2022-12-28T00:58:55;8.00;;;6.18;;
63342;SDS011;49465;57.664;39.686;2022-12-28T01:01:24;4.43;;;1.50;;
63342;SDS011;49465;57.664;39.686;2022-12-28T01:03:53;8.30;;;6.22;;
63342;SDS011;49465;57.664;39.686;2022-12-28T01:06:21;3.75;;;1.58;;
63342;SDS011;49465;57.664;39.686;2022-12-28T01:08:52;8.82;;;6.38;;
63342;SDS011;49465;57.664;39.686;2022-12-28T01:11:26;7.97;;;6.00;;
63342;SDS011;49465;57.664;39.686;2022-12-28T01:13:55;3.90;;;1.80;;
63342;SDS011;49465;57.664;39.686;2022-12-28T01:16:25;6.72;;;5.47;;
63342;SDS011;49465;57.664;39.686;2022-12-28T01:18:57;5.15;;;1.77;;
63342;SDS011;49465;57.664;39.686;2022-12-28T01:21:29;7.85;;;6.00;;
63342;SDS011;49465;57.664;39.686;2022-12-28T01:23:58;7.75;;;6.00;;
63342;SDS011;49465;57.664;39.686;2022-12-28T01:26:26;8.48;;;5.93;;
63342;SDS011;49465;57.664;39.686;2022-12-28T01:28:53;4.95;;;2.05;;
63342;SDS011;49465;57.664;39.686;2022-12-28T01:31:26;7.03;;;5.50;;
63342;SDS011;49465;57.664;39.686;2022-12-28T01:34:01;7.75;;;5.90;;
63342;SDS011;49465;57.664;39.686;2022-12-28T01:36:29;3.47;;;1.55;;
63342;SDS011;49465;57.664;39.686;2022-12-28T01:39:02;7.28;;;5.72;;
63342;SDS011;49465;57.664;39.686;2022-12-28T01:41:30;6.80;;;5.40;;
63342;SDS011;49465;57.664;39.686;2022-12-28T01:46:39;4.13;;;1.50;;
63342;SDS011;49465;57.664;39.686;2022-12-28T01:49:15;7.03;;;5.35;;
63342;SDS011;49465;57.664;39.686;2022-12-28T01:54:22;2.72;;;1.30;;
63342;SDS011;49465;57.664;39.686;2022-12-28T01:56:57;7.90;;;5.60;;
63342;SDS011;49465;57.664;39.686;2022-12-28T01:59:24;3.33;;;1.50;;
63342;SDS011;49465;57.664;39.686;2022-12-28T02:01:57;7.07;;;5.68;;
63342;SDS011;49465;57.664;39.686;2022-12-28T02:04:24;8.23;;;6.13;;
63342;SDS011;49465;57.664;39.686;2022-12-28T02:06:58;7.93;;;5.47;;
63342;SDS011;49465;57.664;39.686;2022-12-28T02:09:28;3.08;;;1.80;;
63342;SDS011;49465;57.664;39.686;2022-12-28T02:12:07;7.68;;;5.68;;
63342;SDS011;49465;57.664;39.686;2022-12-28T02:14:38;8.18;;;5.85;;
63342;SDS011;49465;57.664;39.686;2022-12-28T02:17:10;2.05;;;1.20;;
63342;SDS011;49465;57.664;39.686;2022-12-28T02:19:45;9.07;;;6.22;;
63342;SDS011;49465;57.664;39.686;2022-12-28T02:25:33;7.18;;;5.60;;
63342;SDS011;49465;57.664;39.686;2022-12-28T02:30:34;3.67;;;1.33;;
63342;SDS011;49465;57.664;39.686;2022-12-28T02:33:22;8.13;;;5.47;;
63342;SDS011;49465;57.664;39.686;2022-12-28T02:36:16;9.35;;;6.00;;
63342;SDS011;49465;57.664;39.686;2022-12-28T02:39:09;4.13;;;1.80;;
63342;SDS011;49465;57.664;39.686;2022-12-28T02:41:54;3.05;;;1.50;;
63342;SDS011;49465;57.664;39.686;2022-12-28T02:44:25;7.80;;;5.47;;
63342;SDS011;49465;57.664;39.686;2022-12-28T02:47:13;1.95;;;1.23;;
63342;SDS011;49465;57.664;39.686;2022-12-28T02:50:05;7.22;;;5.55;;
63342;SDS011;49465;57.664;39.686;2022-12-28T03:12:34;8.82;;;5.85;;
63342;SDS011;49465;57.664;39.686;2022-12-28T03:15:14;3.63;;;1.38;;
63342;SDS011;49465;57.664;39.686;2022-12-28T03:17:53;8.77;;;6.05;;
63342;SDS011;49465;57.664;39.686;2022-12-28T03:20:41;8.00;;;5.82;;
63342;SDS011;49465;57.664;39.686;2022-12-28T03:23:28;9.05;;;5.78;;
63342;SDS011;49465;57.664;39.686;2022-12-28T03:26:17;4.53;;;2.22;;
63342;SDS011;49465;57.664;39.686;2022-12-28T03:29:06;7.90;;;5.95;;
63342;SDS011;49465;57.664;39.686;2022-12-28T03:31:54;5.82;;;2.08;;
63342;SDS011;49465;57.664;39.686;2022-12-28T03:34:21;6.95;;;2.95;;
63342;SDS011;49465;57.664;39.686;2022-12-28T03:39:40;8.32;;;6.15;;
63342;SDS011;49465;57.664;39.686;2022-12-28T03:42:21;2.30;;;1.30;;
63342;SDS011;49465;57.664;39.686;2022-12-28T03:47:48;8.60;;;6.40;;
63342;SDS011;49465;57.664;39.686;2022-12-28T03:50:20;1.80;;;1.15;;
63342;SDS011;49465;57.664;39.686;2022-12-28T03:52:48;8.68;;;6.63;;
63342;SDS011;49465;57.664;39.686;2022-12-28T03:55:16;6.72;;;2.90;;
63342;SDS011;49465;57.664;39.686;2022-12-28T03:57:50;8.75;;;6.38;;
63342;SDS011;49465;57.664;39.686;2022-12-28T04:00:17;6.57;;;1.70;;
63342;SDS011;49465;57.664;39.686;2022-12-28T04:02:54;11.48;;;6.85;;
63342;SDS011;49465;57.664;39.686;2022-12-28T04:05:20;5.95;;;1.92;;
63342;SDS011;49465;57.664;39.686;2022-12-28T04:07:51;11.52;;;7.63;;
63342;SDS011;49465;57.664;39.686;2022-12-28T04:10:20;10.60;;;7.10;;
63342;SDS011;49465;57.664;39.686;2022-12-28T04:13:01;9.52;;;7.35;;
63342;SDS011;49465;57.664;39.686;2022-12-28T04:15:30;11.23;;;7.38;;
63342;SDS011;49465;57.664;39.686;2022-12-28T04:17:58;9.80;;;7.18;;
63342;SDS011;49465;57.664;39.686;2022-12-28T04:20:33;6.57;;;2.50;;
63342;SDS011;49465;57.664;39.686;2022-12-28T04:23:04;12.27;;;8.50;;
63342;SDS011;49465;57.664;39.686;2022-12-28T04:25:33;11.73;;;8.00;;
63342;SDS011;49465;57.664;39.686;2022-12-28T04:28:07;11.02;;;7.93;;
63342;SDS011;49465;57.664;39.686;2022-12-28T04:30:39;4.25;;;2.05;;
63342;SDS011;49465;57.664;39.686;2022-12-28T04:33:05;4.90;;;2.00;;
63342;SDS011;49465;57.664;39.686;2022-12-28T04:35:34;12.32;;;7.90;;
63342;SDS011;49465;57.664;39.686;2022-12-28T04:38:03;15.18;;;8.35;;
63342;SDS011;49465;57.664;39.686;2022-12-28T04:40:35;13.50;;;8.90;;
63342;SDS011;49465;57.664;39.686;2022-12-28T04:43:02;4.38;;;2.22;;
63342;SDS011;49465;57.664;39.686;2022-12-28T04:45:30;13.70;;;8.60;;
63342;SDS011;49465;57.664;39.686;2022-12-28T04:47:57;6.03;;;2.40;;
63342;SDS011;49465;57.664;39.686;2022-12-28T04:50:24;16.02;;;10.90;;
63342;SDS011;49465;57.664;39.686;2022-12-28T04:52:51;8.77;;;3.35;;
63342;SDS011;49465;57.664;39.686;2022-12-28T04:55:20;16.98;;;11.77;;
63342;SDS011;49465;57.664;39.686;2022-12-28T04:57:53;16.42;;;11.60;;
63342;SDS011;49465;57.664;39.686;2022-12-28T05:00:24;7.60;;;2.60;;
63342;SDS011;49465;57.664;39.686;2022-12-28T05:02:53;14.85;;;9.88;;
63342;SDS011;49465;57.664;39.686;2022-12-28T05:05:28;9.05;;;4.03;;
63342;SDS011;49465;57.664;39.686;2022-12-28T05:07:55;16.50;;;11.60;;
63342;SDS011;49465;57.664;39.686;2022-12-28T05:10:25;16.92;;;11.52;;
63342;SDS011;49465;57.664;39.686;2022-12-28T05:12:53;16.45;;;11.55;;
63342;SDS011;49465;57.664;39.686;2022-12-28T05:15:20;9.90;;;3.95;;
63342;SDS011;49465;57.664;39.686;2022-12-28T05:17:49;14.98;;;9.90;;
63342;SDS011;49465;57.664;39.686;2022-12-28T05:20:21;14.13;;;9.50;;
63342;SDS011;49465;57.664;39.686;2022-12-28T05:22:48;5.03;;;1.90;;
63342;SDS011;49465;57.664;39.686;2022-12-28T05:25:20;15.27;;;9.52;;
63342;SDS011;49465;57.664;39.686;2022-12-28T05:27:49;15.40;;;9.98;;
63342;SDS011;49465;57.664;39.686;2022-12-28T05:30:24;5.00;;;2.38;;
63342;SDS011;49465;57.664;39.686;2022-12-28T05:32:50;16.42;;;10.07;;
63342;SDS011;49465;57.664;39.686;2022-12-28T05:35:16;6.85;;;2.25;;
63342;SDS011;49465;57.664;39.686;2022-12-28T05:37:43;14.40;;;9.65;;
63342;SDS011;49465;57.664;39.686;2022-12-28T05:40:12;14.73;;;9.65;;
63342;SDS011;49465;57.664;39.686;2022-12-28T05:42:41;7.63;;;2.83;;
63342;SDS011;49465;57.664;39.686;2022-12-28T05:45:10;13.40;;;9.02;;
63342;SDS011;49465;57.664;39.686;2022-12-28T05:47:36;14.68;;;9.25;;
63342;SDS011;49465;57.664;39.686;2022-12-28T05:50:03;7.20;;;2.70;;
63342;SDS011;49465;57.664;39.686;2022-12-28T05:52:32;12.20;;;8.57;;
63342;SDS011;49465;57.664;39.686;2022-12-28T05:55:00;13.27;;;8.95;;
63342;SDS011;49465;57.664;39.686;2022-12-28T05:57:27;3.63;;;2.35;;
63342;SDS011;49465;57.664;39.686;2022-12-28T05:59:53;13.07;;;8.95;;
63342;SDS011;49465;57.664;39.686;2022-12-28T06:02:25;13.90;;;9.32;;
63342;SDS011;49465;57.664;39.686;2022-12-28T06:04:52;4.45;;;1.92;;
63342;SDS011;49465;57.664;39.686;2022-12-28T06:07:23;11.63;;;8.27;;
63342;SDS011;49465;57.664;39.686;2022-12-28T06:09:50;12.52;;;8.70;;
63342;SDS011;49465;57.664;39.686;2022-12-28T06:12:19;13.00;;;8.85;;
63342;SDS011;49465;57.664;39.686;2022-12-28T06:14:45;6.68;;;2.78;;
63342;SDS011;49465;57.664;39.686;2022-12-28T06:17:12;6.57;;;2.63;;
63342;SDS011;49465;57.664;39.686;2022-12-28T06:19:38;11.60;;;8.52;;
63342;SDS011;49465;57.664;39.686;2022-12-28T06:22:07;12.35;;;8.65;;
63342;SDS011;49465;57.664;39.686;2022-12-28T06:24:34;9.60;;;3.33;;
63342;SDS011;49465;57.664;39.686;2022-12-28T06:27:02;14.52;;;8.70;;
63342;SDS011;49465;57.664;39.686;2022-12-28T06:29:29;12.70;;;8.65;;
63342;SDS011;49465;57.664;39.686;2022-12-28T06:31:55;12.30;;;8.35;;
63342;SDS011;49465;57.664;39.686;2022-12-28T06:34:24;13.00;;;8.98;;
63342;SDS011;49465;57.664;39.686;2022-12-28T06:36:52;12.50;;;8.27;;
63342;SDS011;49465;57.664;39.686;2022-12-28T06:39:20;3.33;;;1.45;;
63342;SDS011;49465;57.664;39.686;2022-12-28T06:41:47;13.35;;;8.32;;
63342;SDS011;49465;57.664;39.686;2022-12-28T06:44:18;13.02;;;8.45;;
63342;SDS011;49465;57.664;39.686;2022-12-28T06:46:44;11.60;;;8.13;;
63342;SDS011;49465;57.664;39.686;2022-12-28T06:49:11;12.70;;;8.30;;
63342;SDS011;49465;57.664;39.686;2022-12-28T06:51:37;11.90;;;8.13;;
63342;SDS011;49465;57.664;39.686;2022-12-28T06:54:06;6.60;;;2.65;;
63342;SDS011;49465;57.664;39.686;2022-12-28T06:56:35;11.95;;;7.90;;
63342;SDS011;49465;57.664;39.686;2022-12-28T06:59:04;11.82;;;7.97;;
63342;SDS011;49465;57.664;39.686;2022-12-28T07:01:35;10.60;;;8.05;;
63342;SDS011;49465;57.664;39.686;2022-12-28T07:04:08;11.52;;;7.95;;
63342;SDS011;49465;57.664;39.686;2022-12-28T07:06:35;11.10;;;7.82;;
63342;SDS011;49465;57.664;39.686;2022-12-28T07:09:06;4.65;;;2.03;;
63342;SDS011;49465;57.664;39.686;2022-12-28T07:11:34;10.43;;;7.38;;
63342;SDS011;49465;57.664;39.686;2022-12-28T07:14:04;13.18;;;7.60;;
63342;SDS011;49465;57.664;39.686;2022-12-28T07:16:30;4.95;;;2.03;;
63342;SDS011;49465;57.664;39.686;2022-12-28T07:18:57;11.88;;;8.00;;
63342;SDS011;49465;57.664;39.686;2022-12-28T07:21:30;4.65;;;1.92;;
63342;SDS011;49465;57.664;39.686;2022-12-28T07:23:59;11.48;;;7.60;;
63342;SDS011;49465;57.664;39.686;2022-12-28T07:26:29;3.65;;;1.75;;
63342;SDS011;49465;57.664;39.686;2022-12-28T07:28:58;5.97;;;2.30;;
63342;SDS011;49465;57.664;39.686;2022-12-28T07:31:27;11.52;;;7.53;;
63342;SDS011;49465;57.664;39.686;2022-12-28T07:33:58;10.50;;;7.88;;
63342;SDS011;49465;57.664;39.686;2022-12-28T07:36:26;6.03;;;2.10;;
63342;SDS011;49465;57.664;39.686;2022-12-28T07:38:54;10.13;;;7.45;;
63342;SDS011;49465;57.664;39.686;2022-12-28T07:41:22;9.95;;;7.22;;
63342;SDS011;49465;57.664;39.686;2022-12-28T07:43:51;12.40;;;7.80;;
63342;SDS011;49465;57.664;39.686;2022-12-28T07:46:21;12.05;;;7.85;;
63342;SDS011;49465;57.664;39.686;2022-12-28T07:48:50;7.68;;;3.17;;
63342;SDS011;49465;57.664;39.686;2022-12-28T07:51:18;11.27;;;7.65;;
63342;SDS011;49465;57.664;39.686;2022-12-28T07:53:49;9.57;;;3.78;;
63342;SDS011;49465;57.664;39.686;2022-12-28T07:56:17;10.00;;;7.47;;
63342;SDS011;49465;57.664;39.686;2022-12-28T07:58:48;1.98;;;1.27;;
63342;SDS011;49465;57.664;39.686;2022-12-28T08:01:26;11.40;;;7.65;;
63342;SDS011;49465;57.664;39.686;2022-12-28T08:04:00;2.58;;;1.50;;
63342;SDS011;49465;57.664;39.686;2022-12-28T08:06:28;12.80;;;7.65;;
63342;SDS011;49465;57.664;39.686;2022-12-28T08:08:58;11.68;;;7.53;;
63342;SDS011;49465;57.664;39.686;2022-12-28T08:11:29;4.07;;;1.65;;
63342;SDS011;49465;57.664;39.686;2022-12-28T08:13:57;11.00;;;7.40;;
63342;SDS011;49465;57.664;39.686;2022-12-28T08:16:28;12.10;;;7.18;;
63342;SDS011;49465;57.664;39.686;2022-12-28T08:19:02;6.75;;;2.53;;
63342;SDS011;49465;57.664;39.686;2022-12-28T08:21:36;11.65;;;7.63;;
63342;SDS011;49465;57.664;39.686;2022-12-28T08:24:13;11.63;;;7.97;;
63342;SDS011;49465;57.664;39.686;2022-12-28T08:26:41;7.45;;;2.42;;
63342;SDS011;49465;57.664;39.686;2022-12-28T08:29:13;11.45;;;7.60;;
63342;SDS011;49465;57.664;39.686;2022-12-28T08:31:44;11.88;;;7.80;;
63342;SDS011;49465;57.664;39.686;2022-12-28T08:34:17;13.65;;;8.57;;
63342;SDS011;49465;57.664;39.686;2022-12-28T08:36:50;13.38;;;9.32;;
63342;SDS011;49465;57.664;39.686;2022-12-28T08:39:18;4.15;;;1.95;;
63342;SDS011;49465;57.664;39.686;2022-12-28T08:41:53;13.90;;;8.93;;
63342;SDS011;49465;57.664;39.686;2022-12-28T08:44:22;6.82;;;2.53;;
63342;SDS011;49465;57.664;39.686;2022-12-28T08:46:52;14.13;;;8.32;;
63342;SDS011;49465;57.664;39.686;2022-12-28T08:49:19;7.68;;;2.70;;
63342;SDS011;49465;57.664;39.686;2022-12-28T08:51:46;11.88;;;8.27;;
63342;SDS011;49465;57.664;39.686;2022-12-28T08:54:12;13.52;;;8.13;;
63342;SDS011;49465;57.664;39.686;2022-12-28T08:56:41;11.40;;;8.45;;
63342;SDS011;49465;57.664;39.686;2022-12-28T08:59:11;6.03;;;2.80;;
63342;SDS011;49465;57.664;39.686;2022-12-28T09:01:41;11.02;;;8.02;;
63342;SDS011;49465;57.664;39.686;2022-12-28T09:04:17;5.85;;;2.80;;
63342;SDS011;49465;57.664;39.686;2022-12-28T09:06:52;11.60;;;7.28;;
63342;SDS011;49465;57.664;39.686;2022-12-28T09:09:21;13.35;;;7.80;;
63342;SDS011;49465;57.664;39.686;2022-12-28T09:11:48;3.00;;;1.45;;
63342;SDS011;49465;57.664;39.686;2022-12-28T09:14:14;4.38;;;1.92;;
63342;SDS011;49465;57.664;39.686;2022-12-28T09:16:43;10.32;;;7.50;;
63342;SDS011;49465;57.664;39.686;2022-12-28T09:19:11;12.50;;;7.90;;
63342;SDS011;49465;57.664;39.686;2022-12-28T09:21:39;4.78;;;2.22;;
63342;SDS011;49465;57.664;39.686;2022-12-28T09:24:06;10.48;;;7.25;;
63342;SDS011;49465;57.664;39.686;2022-12-28T09:26:34;11.65;;;7.05;;
63342;SDS011;49465;57.664;39.686;2022-12-28T09:29:03;11.85;;;7.53;;
63342;SDS011;49465;57.664;39.686;2022-12-28T09:31:33;11.40;;;7.43;;
63342;SDS011;49465;57.664;39.686;2022-12-28T09:34:05;10.35;;;6.93;;
63342;SDS011;49465;57.664;39.686;2022-12-28T09:36:39;9.82;;;7.05;;
63342;SDS011;49465;57.664;39.686;2022-12-28T09:39:08;5.47;;;2.38;;
63342;SDS011;49465;57.664;39.686;2022-12-28T09:50:06;11.18;;;7.50;;
63342;SDS011;49465;57.664;39.686;2022-12-28T09:55:29;4.97;;;1.75;;
63342;SDS011;49465;57.664;39.686;2022-12-28T09:58:02;10.63;;;7.45;;
63342;SDS011;49465;57.664;39.686;2022-12-28T10:00:44;9.43;;;6.47;;
63342;SDS011;49465;57.664;39.686;2022-12-28T10:03:16;11.35;;;7.20;;
63342;SDS011;49465;57.664;39.686;2022-12-28T10:05:45;10.52;;;6.82;;
63342;SDS011;49465;57.664;39.686;2022-12-28T10:08:15;6.10;;;2.70;;
63342;SDS011;49465;57.664;39.686;2022-12-28T10:10:48;10.05;;;6.70;;
63342;SDS011;49465;57.664;39.686;2022-12-28T10:13:20;11.07;;;6.72;;
63342;SDS011;49465;57.664;39.686;2022-12-28T10:15:54;10.77;;;6.63;;
63342;SDS011;49465;57.664;39.686;2022-12-28T10:18:25;9.57;;;6.72;;
63342;SDS011;49465;57.664;39.686;2022-12-28T10:20:55;9.85;;;6.80;;
63342;SDS011;49465;57.664;39.686;2022-12-28T10:23:23;8.77;;;6.32;;
63342;SDS011;49465;57.664;39.686;2022-12-28T10:25:54;4.18;;;1.75;;
63342;SDS011;49465;57.664;39.686;2022-12-28T10:28:27;8.90;;;6.40;;
63342;SDS011;49465;57.664;39.686;2022-12-28T10:31:32;9.07;;;6.40;;
63342;SDS011;49465;57.664;39.686;2022-12-28T10:34:19;9.88;;;6.50;;
63342;SDS011;49465;57.664;39.686;2022-12-28T10:36:46;11.27;;;6.60;;
63342;SDS011;49465;57.664;39.686;2022-12-28T10:39:22;9.98;;;7.03;;
63342;SDS011;49465;57.664;39.686;2022-12-28T10:42:02;10.20;;;6.93;;
63342;SDS011;49465;57.664;39.686;2022-12-28T10:44:34;4.43;;;2.33;;
63342;SDS011;49465;57.664;39.686;2022-12-28T10:47:15;8.77;;;6.50;;
63342;SDS011;49465;57.664;39.686;2022-12-28T10:50:00;6.55;;;2.15;;
63342;SDS011;49465;57.664;39.686;2022-12-28T10:52:29;8.63;;;5.63;;
63342;SDS011;49465;57.664;39.686;2022-12-28T10:54:56;9.23;;;6.22;;
63342;SDS011;49465;57.664;39.686;2022-12-28T11:02:59;10.95;;;6.60;;
63342;SDS011;49465;57.664;39.686;2022-12-28T11:05:43;5.60;;;1.55;;
63342;SDS011;49465;57.664;39.686;2022-12-28T11:08:20;10.30;;;6.57;;
63342;SDS011;49465;57.664;39.686;2022-12-28T11:10:47;9.38;;;6.15;;
63342;SDS011;49465;57.664;39.686;2022-12-28T11:13:27;9.13;;;6.55;;
63342;SDS011;49465;57.664;39.686;2022-12-28T11:15:59;9.77;;;6.65;;
63342;SDS011;49465;57.664;39.686;2022-12-28T11:18:26;12.18;;;7.55;;
63342;SDS011;49465;57.664;39.686;2022-12-28T11:21:00;10.07;;;7.32;;
63342;SDS011;49465;57.664;39.686;2022-12-28T11:23:28;11.80;;;7.22;;
63342;SDS011;49465;57.664;39.686;2022-12-28T11:26:07;8.63;;;2.60;;
63342;SDS011;49465;57.664;39.686;2022-12-28T11:28:43;9.57;;;6.85;;
63342;SDS011;49465;57.664;39.686;2022-12-28T11:31:16;9.60;;;6.60;;
63342;SDS011;49465;57.664;39.686;2022-12-28T11:34:01;10.55;;;7.05;;
63342;SDS011;49465;57.664;39.686;2022-12-28T11:36:37;10.20;;;7.00;;
63342;SDS011;49465;57.664;39.686;2022-12-28T11:41:55;10.25;;;7.28;;
63342;SDS011;49465;57.664;39.686;2022-12-28T11:44:47;3.70;;;1.85;;
63342;SDS011;49465;57.664;39.686;2022-12-28T11:49:50;11.52;;;7.72;;
63342;SDS011;49465;57.664;39.686;2022-12-28T11:54:51;12.00;;;7.25;;
63342;SDS011;49465;57.664;39.686;2022-12-28T12:02:52;12.98;;;7.47;;
63342;SDS011;49465;57.664;39.686;2022-12-28T12:10:41;13.30;;;8.13;;
63342;SDS011;49465;57.664;39.686;2022-12-28T12:18:46;13.73;;;8.80;;
63342;SDS011;49465;57.664;39.686;2022-12-28T12:24:04;6.28;;;2.85;;
63342;SDS011;49465;57.664;39.686;2022-12-28T12:26:48;13.75;;;9.20;;
63342;SDS011;49465;57.664;39.686;2022-12-28T12:29:26;17.63;;;10.70;;
63342;SDS011;49465;57.664;39.686;2022-12-28T12:32:10;15.60;;;10.13;;
63342;SDS011;49465;57.664;39.686;2022-12-28T12:34:53;14.90;;;10.10;;
63342;SDS011;49465;57.664;39.686;2022-12-28T12:51:39;6.97;;;2.45;;
63342;SDS011;49465;57.664;39.686;2022-12-28T12:57:25;16.13;;;10.25;;
63342;SDS011;49465;57.664;39.686;2022-12-28T13:05:56;16.02;;;10.30;;
63342;SDS011;49465;57.664;39.686;2022-12-28T13:08:28;17.23;;;10.77;;
63342;SDS011;49465;57.664;39.686;2022-12-28T13:11:07;20.63;;;12.77;;
63342;SDS011;49465;57.664;39.686;2022-12-28T13:13:37;10.23;;;3.70;;
63342;SDS011;49465;57.664;39.686;2022-12-28T13:16:10;18.83;;;11.98;;
63342;SDS011;49465;57.664;39.686;2022-12-28T13:19:04;19.20;;;10.90;;
63342;SDS011;49465;57.664;39.686;2022-12-28T13:21:48;18.58;;;10.52;;
63342;SDS011;49465;57.664;39.686;2022-12-28T13:24:19;20.95;;;11.40;;
63342;SDS011;49465;57.664;39.686;2022-12-28T13:26:51;19.85;;;11.32;;
63342;SDS011;49465;57.664;39.686;2022-12-28T13:29:26;6.82;;;2.35;;
63342;SDS011;49465;57.664;39.686;2022-12-28T13:34:50;18.38;;;11.60;;
63342;SDS011;49465;57.664;39.686;2022-12-28T13:37:19;17.70;;;11.50;;
63342;SDS011;49465;57.664;39.686;2022-12-28T13:39:46;18.38;;;11.95;;
63342;SDS011;49465;57.664;39.686;2022-12-28T13:42:39;20.52;;;12.48;;
63342;SDS011;49465;57.664;39.686;2022-12-28T13:45:19;11.52;;;2.83;;
63342;SDS011;49465;57.664;39.686;2022-12-28T13:47:47;18.38;;;11.23;;
63342;SDS011;49465;57.664;39.686;2022-12-28T13:50:29;20.45;;;12.20;;
63342;SDS011;49465;57.664;39.686;2022-12-28T13:58:08;22.60;;;12.70;;
63342;SDS011;49465;57.664;39.686;2022-12-28T14:01:12;8.10;;;2.65;;
63342;SDS011;49465;57.664;39.686;2022-12-28T14:03:50;20.52;;;12.82;;
63342;SDS011;49465;57.664;39.686;2022-12-28T14:06:29;21.42;;;12.32;;
63342;SDS011;49465;57.664;39.686;2022-12-28T14:08:56;23.13;;;12.93;;
63342;SDS011;49465;57.664;39.686;2022-12-28T14:11:26;21.60;;;13.20;;
63342;SDS011;49465;57.664;39.686;2022-12-28T14:13:55;22.30;;;13.77;;
63342;SDS011;49465;57.664;39.686;2022-12-28T14:16:27;22.83;;;13.50;;
63342;SDS011;49465;57.664;39.686;2022-12-28T14:18:55;23.13;;;13.98;;
63342;SDS011;49465;57.664;39.686;2022-12-28T14:21:35;24.10;;;14.57;;
63342;SDS011;49465;57.664;39.686;2022-12-28T14:24:10;22.67;;;14.48;;
63342;SDS011;49465;57.664;39.686;2022-12-28T14:26:39;23.67;;;13.95;;
63342;SDS011;49465;57.664;39.686;2022-12-28T14:29:18;24.80;;;14.38;;
63342;SDS011;49465;57.664;39.686;2022-12-28T14:31:53;22.98;;;13.50;;
63342;SDS011;49465;57.664;39.686;2022-12-28T14:34:28;24.95;;;13.98;;
63342;SDS011;49465;57.664;39.686;2022-12-28T14:36:57;9.85;;;3.33;;
63342;SDS011;49465;57.664;39.686;2022-12-28T14:39:34;22.20;;;13.55;;
63342;SDS011;49465;57.664;39.686;2022-12-28T14:42:15;23.08;;;13.43;;
63342;SDS011;49465;57.664;39.686;2022-12-28T14:44:54;23.40;;;13.57;;
63342;SDS011;49465;57.664;39.686;2022-12-28T14:47:32;8.82;;;3.25;;
63342;SDS011;49465;57.664;39.686;2022-12-28T14:50:02;21.83;;;13.40;;
63342;SDS011;49465;57.664;39.686;2022-12-28T14:52:49;21.15;;;13.25;;
63342;SDS011;49465;57.664;39.686;2022-12-28T14:55:53;24.67;;;14.48;;
63342;SDS011;49465;57.664;39.686;2022-12-28T14:58:30;9.98;;;3.92;;
63342;SDS011;49465;57.664;39.686;2022-12-28T15:01:14;23.45;;;14.35;;
63342;SDS011;49465;57.664;39.686;2022-12-28T15:03:48;22.63;;;14.50;;
63342;SDS011;49465;57.664;39.686;2022-12-28T15:06:15;23.60;;;14.75;;
63342;SDS011;49465;57.664;39.686;2022-12-28T15:08:47;27.75;;;15.63;;
63342;SDS011;49465;57.664;39.686;2022-12-28T15:11:18;26.85;;;15.77;;
63342;SDS011;49465;57.664;39.686;2022-12-28T15:13:48;26.27;;;15.52;;
63342;SDS011;49465;57.664;39.686;2022-12-28T15:16:15;26.40;;;14.73;;
63342;SDS011;49465;57.664;39.686;2022-12-28T15:18:46;24.83;;;14.63;;
63342;SDS011;49465;57.664;39.686;2022-12-28T15:21:14;25.52;;;14.50;;
63342;SDS011;49465;57.664;39.686;2022-12-28T15:23:51;22.27;;;14.02;;
63342;SDS011;49465;57.664;39.686;2022-12-28T15:26:21;22.77;;;14.63;;
63342;SDS011;49465;57.664;39.686;2022-12-28T15:28:56;26.58;;;15.00;;
63342;SDS011;49465;57.664;39.686;2022-12-28T15:31:27;25.27;;;15.52;;
63342;SDS011;49465;57.664;39.686;2022-12-28T15:33:54;24.42;;;14.88;;
63342;SDS011;49465;57.664;39.686;2022-12-28T15:36:23;26.95;;;14.98;;
63342;SDS011;49465;57.664;39.686;2022-12-28T15:38:50;14.18;;;5.00;;
63342;SDS011;49465;57.664;39.686;2022-12-28T15:41:23;23.48;;;15.60;;
63342;SDS011;49465;57.664;39.686;2022-12-28T15:44:08;29.10;;;16.35;;
63342;SDS011;49465;57.664;39.686;2022-12-28T15:46:37;24.90;;;16.42;;
63342;SDS011;49465;57.664;39.686;2022-12-28T15:49:04;25.70;;;15.85;;
63342;SDS011;49465;57.664;39.686;2022-12-28T15:51:31;26.27;;;16.27;;
63342;SDS011;49465;57.664;39.686;2022-12-28T15:53:58;12.73;;;4.18;;
63342;SDS011;49465;57.664;39.686;2022-12-28T15:56:28;25.90;;;16.17;;
63342;SDS011;49465;57.664;39.686;2022-12-28T15:58:57;9.80;;;4.03;;
63342;SDS011;49465;57.664;39.686;2022-12-28T16:01:36;25.95;;;16.95;;
63342;SDS011;49465;57.664;39.686;2022-12-28T16:04:16;25.45;;;15.88;;
63342;SDS011;49465;57.664;39.686;2022-12-28T16:06:43;11.52;;;5.05;;
63342;SDS011;49465;57.664;39.686;2022-12-28T16:09:10;26.85;;;16.67;;
63342;SDS011;49465;57.664;39.686;2022-12-28T16:11:47;24.25;;;15.57;;
63342;SDS011;49465;57.664;39.686;2022-12-28T16:14:20;28.45;;;15.52;;
63342;SDS011;49465;57.664;39.686;2022-12-28T16:16:46;25.35;;;15.43;;
63342;SDS011;49465;57.664;39.686;2022-12-28T16:19:15;27.05;;;16.73;;
63342;SDS011;49465;57.664;39.686;2022-12-28T16:21:42;13.13;;;4.00;;
63342;SDS011;49465;57.664;39.686;2022-12-28T16:24:11;22.58;;;14.63;;
63342;SDS011;49465;57.664;39.686;2022-12-28T16:26:40;23.90;;;15.38;;
63342;SDS011;49465;57.664;39.686;2022-12-28T16:29:08;24.92;;;15.13;;
63342;SDS011;49465;57.664;39.686;2022-12-28T16:31:35;12.48;;;3.28;;
63342;SDS011;49465;57.664;39.686;2022-12-28T16:36:35;24.52;;;15.00;;
63342;SDS011;49465;57.664;39.686;2022-12-28T16:39:05;26.27;;;15.95;;
63342;SDS011;49465;57.664;39.686;2022-12-28T16:41:33;25.08;;;15.35;;
63342;SDS011;49465;57.664;39.686;2022-12-28T16:44:04;24.67;;;14.98;;
63342;SDS011;49465;57.664;39.686;2022-12-28T16:46:34;23.23;;;15.15;;